Time;durP1;ratioP1;P1;durP2;ratioP2;P2;SDS_P1;SDS_P2;PMS_P1;PMS_P2;Temp;Humidity;BMP_temperature;BMP_pressure;BME280_temperature;BME280_humidity;BME280_pressure;Samples;Min_cycle;Max_cycle;Signal;HPM_P1;HPM_P2
2023/06/06 00:02:19;;;;;;;13.10;6.17;;;;;;;;;;5011165;28;20188;-69
2023/06/06 00:04:49;;;;;;;13.97;5.53;;;;;;;;;;5011600;28;20971;-69
2023/06/06 00:07:16;;;;;;;10.13;5.03;;;;;;;;;;5011730;28;20258;-69
2023/06/06 00:09:43;;;;;;;11.50;5.23;;;;;;;;;;4993571;28;20283;-69
2023/06/06 00:12:12;;;;;;;14.27;5.73;;;;;;;;;;5010881;28;20318;-69
2023/06/06 00:14:40;;;;;;;13.17;6.00;;;;;;;;;;5011414;28;20194;-69
2023/06/06 00:17:08;;;;;;;14.03;5.47;;;;;;;;;;5011124;28;20986;-69
2023/06/06 00:19:42;;;;;;;15.47;6.37;;;;;;;;;;5011558;28;20779;-69
2023/06/06 00:22:09;;;;;;;14.27;5.83;;;;;;;;;;4993462;28;20277;-69
2023/06/06 00:24:36;;;;;;;10.63;5.57;;;;;;;;;;5018358;28;20183;-69
2023/06/06 00:27:03;;;;;;;8.30;4.90;;;;;;;;;;5029839;28;20191;-69
2023/06/06 00:29:29;;;;;;;13.20;5.40;;;;;;;;;;5013000;28;20764;-69
2023/06/06 00:31:56;;;;;;;10.50;5.50;;;;;;;;;;5013028;28;20195;-69
2023/06/06 00:34:23;;;;;;;12.53;5.87;;;;;;;;;;5013199;28;20262;-69
2023/06/06 00:36:50;;;;;;;14.17;5.70;;;;;;;;;;5030446;28;20195;-69
2023/06/06 00:39:16;;;;;;;11.83;5.63;;;;;;;;;;5012856;28;20282;-69
2023/06/06 00:41:43;;;;;;;12.40;5.23;;;;;;;;;;4992515;28;20291;-69
2023/06/06 00:44:10;;;;;;;11.50;5.30;;;;;;;;;;4993190;28;20778;-69
2023/06/06 00:46:36;;;;;;;8.13;4.50;;;;;;;;;;5011141;28;20270;-69
2023/06/06 00:49:03;;;;;;;9.80;5.07;;;;;;;;;;5009427;28;20626;-69
2023/06/06 00:51:30;;;;;;;12.53;5.33;;;;;;;;;;5009480;28;20196;-69
2023/06/06 00:53:57;;;;;;;11.73;5.40;;;;;;;;;;5009264;28;20550;-69
2023/06/06 00:56:28;;;;;;;10.23;5.47;;;;;;;;;;4992692;28;20229;-68
2023/06/06 00:58:57;;;;;;;11.30;4.90;;;;;;;;;;5009138;28;20192;-69
2023/06/06 01:01:28;;;;;;;11.17;5.10;;;;;;;;;;5006321;28;20218;-69
2023/06/06 01:03:56;;;;;;;13.63;5.17;;;;;;;;;;5010401;28;20613;-69
2023/06/06 01:06:23;;;;;;;7.03;4.27;;;;;;;;;;5008952;28;20196;-69
2023/06/06 01:08:50;;;;;;;11.03;5.03;;;;;;;;;;5009867;28;20303;-69
2023/06/06 01:11:38;;;;;;;11.03;4.93;;;;;;;;;;5010302;28;20207;-69
2023/06/06 01:14:06;;;;;;;10.77;5.10;;;;;;;;;;5008874;28;20594;-69
2023/06/06 01:16:52;;;;;;;8.77;5.10;;;;;;;;;;5011164;28;20227;-70
2023/06/06 01:19:20;;;;;;;11.03;4.83;;;;;;;;;;5012787;28;20207;-69
2023/06/06 01:21:47;;;;;;;9.97;5.03;;;;;;;;;;4995905;28;20333;-69
2023/06/06 01:24:15;;;;;;;8.87;4.63;;;;;;;;;;5012300;28;20192;-69
2023/06/06 01:26:42;;;;;;;12.00;4.83;;;;;;;;;;5012224;28;20232;-70
2023/06/06 01:29:09;;;;;;;9.53;5.27;;;;;;;;;;5029482;28;20562;-69
2023/06/06 01:31:36;;;;;;;8.53;4.77;;;;;;;;;;5029876;28;20266;-70
2023/06/06 01:34:10;;;;;;;12.83;5.50;;;;;;;;;;5029444;28;20191;-69
2023/06/06 01:36:39;;;;;;;10.13;5.30;;;;;;;;;;4991469;28;20197;-70
2023/06/06 01:39:07;;;;;;;14.47;5.07;;;;;;;;;;4992233;28;20246;-69
2023/06/06 01:41:36;;;;;;;13.50;5.07;;;;;;;;;;4992790;28;20258;-69
2023/06/06 02:15:50;;;;;;;9.93;5.37;;;;;;;;;;5027487;28;20178;-71
2023/06/06 02:18:18;;;;;;;9.77;5.13;;;;;;;;;;5029105;28;20226;-70
2023/06/06 02:20:45;;;;;;;12.17;5.20;;;;;;;;;;5010775;28;20199;-71
2023/06/06 02:23:11;;;;;;;10.57;5.07;;;;;;;;;;5011075;28;20191;-71
2023/06/06 02:25:56;;;;;;;10.27;4.60;;;;;;;;;;5029101;28;20180;-70
2023/06/06 02:28:23;;;;;;;9.73;4.40;;;;;;;;;;5011469;28;20214;-70
2023/06/06 02:31:09;;;;;;;7.00;4.37;;;;;;;;;;5011211;28;20565;-71
2023/06/06 02:33:38;;;;;;;11.77;4.50;;;;;;;;;;5028834;28;20558;-71
2023/06/06 02:36:23;;;;;;;10.13;4.50;;;;;;;;;;5011161;28;20175;-71
2023/06/06 02:38:50;;;;;;;7.77;4.07;;;;;;;;;;5010993;28;20195;-71
2023/06/06 02:41:17;;;;;;;7.70;4.40;;;;;;;;;;4995315;28;20203;-70
2023/06/06 02:43:45;;;;;;;7.87;4.60;;;;;;;;;;4995220;28;20203;-70
2023/06/06 02:46:11;;;;;;;10.53;4.53;;;;;;;;;;5011163;28;20199;-70
2023/06/06 02:48:38;;;;;;;8.80;4.37;;;;;;;;;;5028631;28;20261;-70
2023/06/06 02:51:06;;;;;;;12.47;4.70;;;;;;;;;;5027952;28;20278;-70
2023/06/06 02:53:34;;;;;;;14.53;5.63;;;;;;;;;;5010975;28;20206;-71
2023/06/06 02:56:00;;;;;;;11.70;4.47;;;;;;;;;;5028492;28;20654;-70
2023/06/06 02:58:28;;;;;;;9.87;5.00;;;;;;;;;;4994833;28;20195;-71
2023/06/06 03:00:57;;;;;;;20.93;6.07;;;;;;;;;;5006379;28;20184;-70
2023/06/06 03:03:24;;;;;;;12.83;4.70;;;;;;;;;;4991297;28;20227;-71
2023/06/06 03:05:53;;;;;;;21.43;6.23;;;;;;;;;;4991107;28;20200;-71
2023/06/06 03:08:20;;;;;;;20.43;5.70;;;;;;;;;;4991278;28;20727;-70
2023/06/06 03:10:47;;;;;;;22.53;6.03;;;;;;;;;;5008942;28;20192;-71
2023/06/06 03:13:15;;;;;;;21.50;4.97;;;;;;;;;;5007701;28;20311;-71
2023/06/06 03:15:44;;;;;;;19.00;5.30;;;;;;;;;;5007372;28;20263;-71
2023/06/06 03:18:12;;;;;;;25.83;5.93;;;;;;;;;;5010983;28;20266;-71
2023/06/06 03:20:40;;;;;;;14.67;5.00;;;;;;;;;;4990820;28;20200;-71
2023/06/06 03:23:13;;;;;;;13.83;4.73;;;;;;;;;;4990977;28;20196;-70
2023/06/06 03:25:58;;;;;;;19.80;5.60;;;;;;;;;;5026779;28;20182;-71
2023/06/06 03:28:25;;;;;;;18.20;5.13;;;;;;;;;;5010922;28;20198;-71
2023/06/06 03:30:54;;;;;;;15.47;6.00;;;;;;;;;;5010529;28;20229;-71
2023/06/06 03:33:22;;;;;;;12.43;5.43;;;;;;;;;;5010271;28;20188;-71
2023/06/06 03:35:51;;;;;;;12.70;4.97;;;;;;;;;;5009540;28;20582;-72
2023/06/06 03:38:37;;;;;;;12.40;4.80;;;;;;;;;;5028198;28;20539;-68
2023/06/06 03:41:04;;;;;;;11.00;4.27;;;;;;;;;;5010315;28;20199;-69
2023/06/06 03:43:33;;;;;;;12.40;4.50;;;;;;;;;;4994625;28;20211;-68
2023/06/06 03:46:00;;;;;;;14.93;4.70;;;;;;;;;;5028063;28;20686;-68
2023/06/06 03:48:28;;;;;;;11.37;4.33;;;;;;;;;;5014790;28;20251;-71
2023/06/06 03:50:58;;;;;;;11.73;4.70;;;;;;;;;;5017537;28;20183;-70
2023/06/06 03:53:25;;;;;;;8.93;4.67;;;;;;;;;;4993097;28;20231;-69
2023/06/06 03:55:52;;;;;;;18.13;4.30;;;;;;;;;;5032487;28;20194;-70
2023/06/06 03:58:20;;;;;;;10.13;4.47;;;;;;;;;;5014018;28;21122;-70
2023/06/06 04:00:49;;;;;;;12.73;5.50;;;;;;;;;;5003202;28;20196;-70
2023/06/06 04:03:16;;;;;;;11.17;5.00;;;;;;;;;;5009803;28;20187;-70
2023/06/06 04:05:45;;;;;;;14.13;4.57;;;;;;;;;;5012933;28;20257;-69
2023/06/06 04:08:11;;;;;;;10.87;5.50;;;;;;;;;;5013518;28;20215;-69
2023/06/06 04:10:38;;;;;;;9.37;5.30;;;;;;;;;;5007264;28;20199;-69
2023/06/06 04:13:05;;;;;;;11.07;4.70;;;;;;;;;;5031441;28;20188;-69
2023/06/06 04:15:32;;;;;;;11.80;5.80;;;;;;;;;;4996981;28;20286;-68
2023/06/06 04:17:58;;;;;;;13.57;5.80;;;;;;;;;;5013053;28;20238;-68
2023/06/06 04:20:26;;;;;;;21.37;6.00;;;;;;;;;;5034272;28;20576;-67
2023/06/06 04:22:54;;;;;;;13.10;4.87;;;;;;;;;;5033646;28;20218;-68
2023/06/06 04:25:21;;;;;;;12.17;5.30;;;;;;;;;;5018349;28;20222;-68
2023/06/06 04:27:48;;;;;;;13.67;4.97;;;;;;;;;;5013411;28;20229;-67
2023/06/06 04:30:22;;;;;;;11.20;4.83;;;;;;;;;;5010427;28;20201;-68
2023/06/06 04:32:53;;;;;;;12.80;5.30;;;;;;;;;;4997330;28;20612;-68
2023/06/06 04:35:21;;;;;;;14.13;4.90;;;;;;;;;;5011773;28;20215;-67
2023/06/06 04:37:50;;;;;;;8.87;4.80;;;;;;;;;;5028687;28;20203;-67
2023/06/06 04:40:21;;;;;;;9.83;5.07;;;;;;;;;;5009199;28;20204;-67
2023/06/06 04:42:50;;;;;;;12.17;5.60;;;;;;;;;;5013406;28;20195;-67
2023/06/06 04:45:16;;;;;;;12.97;5.20;;;;;;;;;;5016628;28;20206;-67
2023/06/06 04:47:46;;;;;;;14.50;5.07;;;;;;;;;;5026826;28;20257;-67
2023/06/06 04:50:13;;;;;;;11.80;4.93;;;;;;;;;;5011864;28;20750;-67
2023/06/06 04:52:57;;;;;;;19.67;5.60;;;;;;;;;;4984270;28;20203;-66
2023/06/06 04:55:27;;;;;;;13.73;5.40;;;;;;;;;;5030257;28;20299;-67
2023/06/06 05:01:41;;;;;;;12.67;5.13;;;;;;;;;;5028238;28;20186;-70
2023/06/06 05:04:08;;;;;;;17.53;6.83;;;;;;;;;;5036335;28;20187;-68
2023/06/06 05:06:35;;;;;;;18.60;7.40;;;;;;;;;;5018327;28;20227;-70
2023/06/06 05:09:03;;;;;;;12.30;5.53;;;;;;;;;;5011666;28;20665;-68
2023/06/06 05:11:31;;;;;;;12.90;5.20;;;;;;;;;;5029369;28;20223;-68
2023/06/06 05:13:57;;;;;;;13.83;4.80;;;;;;;;;;5011835;28;20183;-69
2023/06/06 05:16:25;;;;;;;11.87;5.03;;;;;;;;;;5007714;28;20212;-68
2023/06/06 05:18:51;;;;;;;11.83;4.50;;;;;;;;;;5032379;28;20229;-68
2023/06/06 05:21:18;;;;;;;14.27;4.53;;;;;;;;;;5002976;28;20197;-68
2023/06/06 05:23:45;;;;;;;7.63;4.17;;;;;;;;;;5011241;28;20191;-69
2023/06/06 05:26:13;;;;;;;15.93;4.07;;;;;;;;;;5022464;28;20299;-68
2023/06/06 05:28:43;;;;;;;12.67;3.87;;;;;;;;;;5049889;28;20217;-70
2023/06/06 05:31:12;;;;;;;7.97;4.27;;;;;;;;;;5049477;28;20198;-68
2023/06/06 05:33:40;;;;;;;8.57;3.73;;;;;;;;;;5032946;28;20195;-69
2023/06/06 05:36:07;;;;;;;6.73;3.83;;;;;;;;;;5029372;28;20207;-68
2023/06/06 05:38:39;;;;;;;10.67;4.07;;;;;;;;;;5012551;28;20191;-70
2023/06/06 05:41:06;;;;;;;9.13;4.07;;;;;;;;;;4989888;28;20244;-66
2023/06/06 05:43:33;;;;;;;13.13;4.17;;;;;;;;;;5029188;28;20184;-65
2023/06/06 05:46:00;;;;;;;12.50;3.93;;;;;;;;;;5029474;28;20198;-65
2023/06/06 05:48:27;;;;;;;12.13;4.23;;;;;;;;;;5029221;28;20295;-65
2023/06/06 05:50:54;;;;;;;8.33;4.13;;;;;;;;;;5029580;28;20225;-65
2023/06/06 05:53:23;;;;;;;13.33;4.40;;;;;;;;;;5029214;28;20188;-65
2023/06/06 05:56:07;;;;;;;9.83;3.23;;;;;;;;;;5029494;28;20861;-67
2023/06/06 05:58:34;;;;;;;9.80;3.70;;;;;;;;;;5029561;28;20192;-68
2023/06/06 06:01:01;;;;;;;6.97;2.90;;;;;;;;;;5029115;28;20188;-68
2023/06/06 06:03:28;;;;;;;10.10;3.30;;;;;;;;;;5011690;28;20199;-67
2023/06/06 06:06:02;;;;;;;14.37;3.23;;;;;;;;;;5029508;28;20195;-67
2023/06/06 06:08:49;;;;;;;6.80;2.90;;;;;;;;;;5015333;28;20312;-68
2023/06/06 06:11:16;;;;;;;8.50;2.90;;;;;;;;;;5029153;28;20241;-67
2023/06/06 06:14:00;;;;;;;6.43;2.13;;;;;;;;;;5014412;28;20736;-67
2023/06/06 06:16:27;;;;;;;3.97;2.10;;;;;;;;;;5029213;28;20761;-67
2023/06/06 06:18:54;;;;;;;5.13;2.20;;;;;;;;;;5029397;28;20210;-67
2023/06/06 06:21:21;;;;;;;4.07;2.00;;;;;;;;;;5011487;28;20191;-67
2023/06/06 06:23:49;;;;;;;4.70;2.13;;;;;;;;;;5028060;28;20716;-68
2023/06/06 06:26:16;;;;;;;8.10;2.17;;;;;;;;;;5008544;28;20609;-67
2023/06/06 06:28:43;;;;;;;8.27;2.90;;;;;;;;;;5009306;28;20265;-67
2023/06/06 06:31:10;;;;;;;4.83;2.13;;;;;;;;;;4991845;28;20642;-67
2023/06/06 06:33:37;;;;;;;7.40;2.47;;;;;;;;;;5024432;28;20294;-67
2023/06/06 06:36:04;;;;;;;7.87;2.33;;;;;;;;;;5009026;28;20227;-67
2023/06/06 06:38:31;;;;;;;5.33;2.30;;;;;;;;;;5009141;28;20192;-68
2023/06/06 06:40:59;;;;;;;6.73;2.40;;;;;;;;;;4991768;28;20244;-67
2023/06/06 06:43:25;;;;;;;8.30;2.83;;;;;;;;;;4992273;28;20204;-68
2023/06/06 06:45:59;;;;;;;6.60;2.20;;;;;;;;;;4991872;28;20238;-67
2023/06/06 06:48:26;;;;;;;7.87;2.40;;;;;;;;;;4991618;28;20303;-67
2023/06/06 06:50:53;;;;;;;4.53;2.13;;;;;;;;;;4991548;28;20196;-68
2023/06/06 06:53:23;;;;;;;8.50;2.10;;;;;;;;;;5008741;28;20192;-67
2023/06/06 06:56:07;;;;;;;8.27;2.30;;;;;;;;;;5008656;28;20864;-68
2023/06/06 06:58:35;;;;;;;6.77;2.20;;;;;;;;;;5009420;28;20181;-67
2023/06/06 07:01:02;;;;;;;8.70;2.37;;;;;;;;;;5015533;28;20184;-68
2023/06/06 07:03:34;;;;;;;5.67;2.03;;;;;;;;;;5027647;28;20191;-67
2023/06/06 07:06:03;;;;;;;8.83;2.37;;;;;;;;;;5011727;28;20285;-68
2023/06/06 07:08:47;;;;;;;9.97;2.30;;;;;;;;;;5012443;28;20731;-68
2023/06/06 07:11:14;;;;;;;4.63;2.10;;;;;;;;;;5027264;28;20218;-67
2023/06/06 07:13:58;;;;;;;9.83;2.33;;;;;;;;;;5028290;28;20177;-68
2023/06/06 07:16:25;;;;;;;5.67;2.10;;;;;;;;;;5030080;28;20179;-67
2023/06/06 07:18:52;;;;;;;8.73;1.90;;;;;;;;;;5030875;28;20175;-68
2023/06/06 07:21:22;;;;;;;6.93;1.70;;;;;;;;;;5047518;28;20310;-67
2023/06/06 07:23:49;;;;;;;7.73;2.20;;;;;;;;;;5046634;28;20212;-68
2023/06/06 07:26:22;;;;;;;5.20;1.80;;;;;;;;;;4994696;28;20189;-68
2023/06/06 07:28:50;;;;;;;5.03;2.00;;;;;;;;;;5028008;28;20233;-68
2023/06/06 07:31:34;;;;;;;5.60;1.73;;;;;;;;;;5028870;28;20833;-68
2023/06/06 07:34:02;;;;;;;6.17;2.10;;;;;;;;;;5010456;28;20195;-68
2023/06/06 07:36:30;;;;;;;2.40;1.80;;;;;;;;;;5010461;28;20195;-69
2023/06/06 07:38:57;;;;;;;4.57;1.60;;;;;;;;;;5014382;28;21597;-68
2023/06/06 07:41:25;;;;;;;6.10;1.70;;;;;;;;;;5031897;28;20222;-68
2023/06/06 07:43:51;;;;;;;2.67;1.37;;;;;;;;;;5014451;28;20238;-68
2023/06/06 07:46:18;;;;;;;4.70;1.47;;;;;;;;;;5031864;28;20195;-68
2023/06/06 07:48:46;;;;;;;3.30;1.60;;;;;;;;;;5014342;28;20238;-67
2023/06/06 07:51:31;;;;;;;5.47;1.63;;;;;;;;;;5031966;28;20172;-68
2023/06/06 07:53:58;;;;;;;9.57;2.27;;;;;;;;;;5014086;28;20191;-68
2023/06/06 07:56:43;;;;;;;3.23;1.60;;;;;;;;;;5031580;28;20257;-67
2023/06/06 07:59:13;;;;;;;4.20;1.50;;;;;;;;;;5031224;28;20186;-68
2023/06/06 08:01:57;;;;;;;3.43;1.63;;;;;;;;;;5031533;28;20183;-69
2023/06/06 08:04:24;;;;;;;6.13;1.83;;;;;;;;;;5032089;28;20191;-68
2023/06/06 08:06:51;;;;;;;4.10;1.77;;;;;;;;;;5031222;28;20278;-70
2023/06/06 08:09:18;;;;;;;3.47;1.70;;;;;;;;;;5031365;28;20311;-68
2023/06/06 08:11:45;;;;;;;7.50;1.97;;;;;;;;;;5031751;28;20223;-68
2023/06/06 08:14:12;;;;;;;4.00;1.93;;;;;;;;;;5031214;28;20191;-68
2023/06/06 08:16:39;;;;;;;6.50;1.70;;;;;;;;;;5010420;28;20282;-68
2023/06/06 08:19:07;;;;;;;5.40;1.67;;;;;;;;;;5011293;28;20243;-69
2023/06/06 08:21:51;;;;;;;3.50;1.90;;;;;;;;;;5009945;28;20270;-69
2023/06/06 08:24:18;;;;;;;5.90;1.80;;;;;;;;;;5006727;28;20189;-68
2023/06/06 08:26:45;;;;;;;6.33;1.67;;;;;;;;;;4994200;28;20640;-67
2023/06/06 08:29:14;;;;;;;5.53;1.80;;;;;;;;;;5010766;28;20614;-67
2023/06/06 08:31:42;;;;;;;2.70;1.60;;;;;;;;;;5010217;28;20227;-68
2023/06/06 08:34:09;;;;;;;4.50;1.80;;;;;;;;;;5013063;28;20188;-67
2023/06/06 08:36:37;;;;;;;3.63;2.00;;;;;;;;;;5030858;28;20289;-68
2023/06/06 08:39:06;;;;;;;5.37;1.67;;;;;;;;;;5013378;28;20172;-68
2023/06/06 08:41:33;;;;;;;4.43;1.70;;;;;;;;;;5031053;28;20246;-67
2023/06/06 08:44:03;;;;;;;4.70;1.80;;;;;;;;;;5030491;28;20273;-67
2023/06/06 08:46:31;;;;;;;3.70;1.40;;;;;;;;;;5031049;28;20275;-68
2023/06/06 08:49:03;;;;;;;4.50;1.53;;;;;;;;;;5029463;28;20539;-67
2023/06/06 08:51:30;;;;;;;3.43;1.80;;;;;;;;;;5030466;28;20260;-67
2023/06/06 08:54:00;;;;;;;6.93;1.90;;;;;;;;;;5013453;28;20186;-68
2023/06/06 08:56:45;;;;;;;2.90;1.50;;;;;;;;;;5015846;28;20189;-67
2023/06/06 08:59:11;;;;;;;4.93;1.63;;;;;;;;;;5030389;28;20211;-66
2023/06/06 09:01:38;;;;;;;3.10;1.43;;;;;;;;;;5013384;28;20337;-67
2023/06/06 09:04:06;;;;;;;3.17;1.80;;;;;;;;;;5012906;28;20194;-67
2023/06/06 09:06:43;;;;;;;3.37;2.00;;;;;;;;;;5030450;28;20211;-67
2023/06/06 09:09:14;;;;;;;2.17;1.90;;;;;;;;;;5030242;28;20658;-67
2023/06/06 09:11:45;;;;;;;4.17;2.07;;;;;;;;;;5013383;28;20297;-69
2023/06/06 09:14:11;;;;;;;2.50;1.77;;;;;;;;;;5030122;28;20195;-67
2023/06/06 09:16:39;;;;;;;3.70;1.87;;;;;;;;;;5030463;28;20224;-67
2023/06/06 09:19:08;;;;;;;3.40;1.60;;;;;;;;;;5012309;28;20311;-67
2023/06/06 09:21:52;;;;;;;5.10;2.20;;;;;;;;;;5015387;28;20173;-67
2023/06/06 09:24:19;;;;;;;4.17;1.80;;;;;;;;;;5024940;28;20201;-66
2023/06/06 09:26:48;;;;;;;4.60;1.83;;;;;;;;;;4992548;28;20220;-68
2023/06/06 09:29:16;;;;;;;6.43;1.80;;;;;;;;;;5009896;28;20209;-67
2023/06/06 09:31:43;;;;;;;3.00;1.93;;;;;;;;;;4993129;28;20654;-67
2023/06/06 09:34:10;;;;;;;6.10;2.27;;;;;;;;;;5009837;28;20173;-67
2023/06/06 09:36:40;;;;;;;3.03;1.70;;;;;;;;;;4992579;28;20204;-66
2023/06/06 09:39:11;;;;;;;2.90;1.53;;;;;;;;;;4992365;28;20208;-66
2023/06/06 09:41:45;;;;;;;5.63;1.97;;;;;;;;;;5009756;28;20211;-67
2023/06/06 09:44:18;;;;;;;2.97;1.80;;;;;;;;;;5009976;28;20599;-67
2023/06/06 09:46:46;;;;;;;3.50;1.70;;;;;;;;;;4993050;28;20200;-68
2023/06/06 09:49:14;;;;;;;3.63;1.87;;;;;;;;;;4992570;28;20667;-68
2023/06/06 09:51:44;;;;;;;3.33;1.90;;;;;;;;;;5009574;28;20188;-68
2023/06/06 09:54:11;;;;;;;5.03;2.30;;;;;;;;;;4976163;28;20208;-67
2023/06/06 09:56:44;;;;;;;3.73;1.77;;;;;;;;;;5009838;28;20180;-68
2023/06/06 09:59:11;;;;;;;4.03;2.03;;;;;;;;;;4992940;28;20195;-67
2023/06/06 10:01:38;;;;;;;2.80;1.77;;;;;;;;;;4992787;28;20189;-68
2023/06/06 10:04:06;;;;;;;5.10;1.90;;;;;;;;;;5009528;28;20229;-68
2023/06/06 10:06:53;;;;;;;4.63;1.90;;;;;;;;;;4994907;28;20169;-68
2023/06/06 10:09:20;;;;;;;4.10;2.10;;;;;;;;;;5009661;28;20701;-68
2023/06/06 10:11:47;;;;;;;3.77;1.80;;;;;;;;;;5009405;28;20219;-67
2023/06/06 10:14:17;;;;;;;2.53;2.00;;;;;;;;;;5009379;28;20191;-67
2023/06/06 10:16:44;;;;;;;3.13;1.87;;;;;;;;;;4997125;28;20227;-68
2023/06/06 10:19:12;;;;;;;3.23;1.70;;;;;;;;;;5011949;28;20245;-68
2023/06/06 10:21:40;;;;;;;3.40;2.00;;;;;;;;;;5028951;28;20559;-67
2023/06/06 10:24:07;;;;;;;3.60;1.90;;;;;;;;;;5011546;28;20184;-67
2023/06/06 10:26:47;;;;;;;5.13;1.73;;;;;;;;;;5011803;28;20242;-68
2023/06/06 10:29:23;;;;;;;2.87;1.50;;;;;;;;;;5011860;28;20222;-67
2023/06/06 10:31:54;;;;;;;3.07;1.60;;;;;;;;;;5011549;28;20494;-67
2023/06/06 10:34:23;;;;;;;5.97;2.60;;;;;;;;;;5011566;28;20195;-68
2023/06/06 10:36:50;;;;;;;5.20;1.90;;;;;;;;;;5011042;28;20207;-67
2023/06/06 10:39:18;;;;;;;2.03;1.80;;;;;;;;;;5011717;28;20786;-67
2023/06/06 10:41:59;;;;;;;4.57;2.00;;;;;;;;;;5028873;28;20618;-68
2023/06/06 10:44:32;;;;;;;3.00;1.80;;;;;;;;;;5011755;28;20278;-67
2023/06/06 10:47:18;;;;;;;4.63;2.00;;;;;;;;;;5011579;28;20654;-67
2023/06/06 10:50:03;;;;;;;2.97;2.20;;;;;;;;;;5029134;28;20210;-68
2023/06/06 10:52:30;;;;;;;3.27;1.80;;;;;;;;;;5029353;28;20183;-67
2023/06/06 10:54:57;;;;;;;2.90;2.10;;;;;;;;;;5029256;28;20257;-67
2023/06/06 10:57:24;;;;;;;4.67;2.40;;;;;;;;;;5029007;28;20183;-67
2023/06/06 10:59:51;;;;;;;3.13;2.00;;;;;;;;;;5028528;28;20184;-68
2023/06/06 11:02:32;;;;;;;4.67;2.13;;;;;;;;;;5028774;28;20210;-67
2023/06/06 11:05:00;;;;;;;4.03;2.10;;;;;;;;;;4995217;28;20594;-68
2023/06/06 11:07:27;;;;;;;3.93;2.00;;;;;;;;;;5029113;28;20241;-67
2023/06/06 11:09:54;;;;;;;3.73;2.10;;;;;;;;;;5011121;28;20702;-67
2023/06/06 11:12:22;;;;;;;4.93;2.10;;;;;;;;;;5030503;28;20191;-67
2023/06/06 11:14:54;;;;;;;6.73;2.47;;;;;;;;;;5014987;28;20186;-68
2023/06/06 11:17:24;;;;;;;5.00;2.40;;;;;;;;;;5014280;28;20233;-68
2023/06/06 11:19:51;;;;;;;3.13;2.10;;;;;;;;;;5014887;28;20272;-67
2023/06/06 11:22:22;;;;;;;4.97;2.37;;;;;;;;;;5032439;28;20287;-67
2023/06/06 11:24:49;;;;;;;6.73;2.30;;;;;;;;;;5032109;28;20262;-67
2023/06/06 11:27:16;;;;;;;2.67;1.80;;;;;;;;;;5032242;28;20192;-68
2023/06/06 11:29:43;;;;;;;3.17;1.87;;;;;;;;;;5032154;28;20539;-67
2023/06/06 11:32:13;;;;;;;3.40;2.07;;;;;;;;;;5014512;28;20180;-67
2023/06/06 11:34:41;;;;;;;4.77;2.00;;;;;;;;;;5003697;28;20601;-68
2023/06/06 11:37:08;;;;;;;4.60;2.10;;;;;;;;;;5031440;28;20196;-67
2023/06/06 11:39:35;;;;;;;3.00;2.03;;;;;;;;;;5030317;28;20253;-67
2023/06/06 11:42:02;;;;;;;4.13;2.20;;;;;;;;;;5013607;28;20196;-67
2023/06/06 11:44:33;;;;;;;3.60;1.97;;;;;;;;;;5030703;28;20191;-70
2023/06/06 11:47:02;;;;;;;4.13;2.17;;;;;;;;;;5043273;28;20198;-68
2023/06/06 11:49:43;;;;;;;6.37;2.40;;;;;;;;;;5051703;28;20577;-66
2023/06/06 11:52:10;;;;;;;7.60;2.07;;;;;;;;;;5031422;28;20196;-65
2023/06/06 11:54:40;;;;;;;5.10;2.00;;;;;;;;;;5031136;28;20710;-66
2023/06/06 11:57:08;;;;;;;2.77;1.80;;;;;;;;;;5023885;28;20208;-66
2023/06/06 11:59:35;;;;;;;2.70;2.03;;;;;;;;;;5011854;28;20182;-66
2023/06/06 12:02:19;;;;;;;2.73;1.90;;;;;;;;;;5039402;28;20189;-67
2023/06/06 12:04:49;;;;;;;5.53;2.30;;;;;;;;;;5051429;28;20212;-67
2023/06/06 12:07:16;;;;;;;2.30;1.97;;;;;;;;;;5036943;28;20225;-68
2023/06/06 12:09:43;;;;;;;4.13;2.00;;;;;;;;;;5013801;28;20222;-67
2023/06/06 12:12:10;;;;;;;2.53;1.87;;;;;;;;;;5029328;28;20197;-66
2023/06/06 12:14:37;;;;;;;4.37;2.17;;;;;;;;;;5032203;28;20220;-66
2023/06/06 12:17:08;;;;;;;3.93;1.80;;;;;;;;;;5032505;28;20230;-66
2023/06/06 12:19:35;;;;;;;3.80;1.97;;;;;;;;;;5015855;28;20598;-67
2023/06/06 12:22:02;;;;;;;3.57;2.07;;;;;;;;;;5015733;28;20285;-67
2023/06/06 12:24:29;;;;;;;4.23;2.10;;;;;;;;;;5032199;28;20197;-67
2023/06/06 12:27:00;;;;;;;2.77;1.90;;;;;;;;;;5014800;28;20278;-67
2023/06/06 12:29:30;;;;;;;5.07;2.20;;;;;;;;;;5018238;28;20597;-67
2023/06/06 12:32:17;;;;;;;3.60;2.10;;;;;;;;;;5017973;28;20227;-67
2023/06/06 12:34:50;;;;;;;7.57;2.27;;;;;;;;;;5032251;28;20199;-67
2023/06/06 12:37:19;;;;;;;7.43;2.23;;;;;;;;;;5035527;28;20252;-66
2023/06/06 12:39:46;;;;;;;4.23;1.97;;;;;;;;;;5032057;28;20211;-66
2023/06/06 12:42:14;;;;;;;4.73;2.27;;;;;;;;;;5032153;28;20194;-67
2023/06/06 12:44:42;;;;;;;2.87;2.03;;;;;;;;;;5033024;28;20249;-68
2023/06/06 12:47:17;;;;;;;5.20;1.83;;;;;;;;;;5019572;28;20209;-67
2023/06/06 12:49:44;;;;;;;10.17;2.63;;;;;;;;;;5031866;28;20202;-68
2023/06/06 12:52:28;;;;;;;6.50;2.13;;;;;;;;;;5037868;28;20582;-67
2023/06/06 12:54:55;;;;;;;5.73;2.33;;;;;;;;;;5032158;28;20221;-68
2023/06/06 12:57:22;;;;;;;5.87;2.00;;;;;;;;;;5028927;28;20194;-68
2023/06/06 12:59:49;;;;;;;3.30;1.93;;;;;;;;;;4999610;28;20243;-68
2023/06/06 13:02:16;;;;;;;2.77;1.90;;;;;;;;;;5026298;28;20655;-67
2023/06/06 13:05:00;;;;;;;2.90;2.00;;;;;;;;;;5032177;28;20177;-68
2023/06/06 13:07:27;;;;;;;2.90;1.90;;;;;;;;;;5031915;28;20186;-67
2023/06/06 13:09:55;;;;;;;6.40;2.40;;;;;;;;;;5032515;28;20547;-68
2023/06/06 13:12:22;;;;;;;7.57;2.30;;;;;;;;;;5032045;28;20197;-67
2023/06/06 13:14:50;;;;;;;4.23;2.00;;;;;;;;;;5031990;28;20195;-67
2023/06/06 13:17:17;;;;;;;6.50;2.30;;;;;;;;;;5030905;28;21032;-67
2023/06/06 13:19:45;;;;;;;4.30;2.10;;;;;;;;;;5000092;28;20206;-68
2023/06/06 13:22:13;;;;;;;3.30;2.07;;;;;;;;;;5042847;28;20198;-65
2023/06/06 13:24:46;;;;;;;4.20;1.87;;;;;;;;;;5033092;28;20206;-65
2023/06/06 13:27:13;;;;;;;7.10;2.57;;;;;;;;;;5028129;28;20233;-65
2023/06/06 13:29:40;;;;;;;3.50;2.13;;;;;;;;;;5034551;28;20261;-64
2023/06/06 13:32:07;;;;;;;3.80;2.07;;;;;;;;;;5049781;28;20257;-64
2023/06/06 13:34:34;;;;;;;2.83;2.00;;;;;;;;;;5044963;28;20192;-67
2023/06/06 13:37:03;;;;;;;4.37;2.10;;;;;;;;;;5029899;28;20189;-68
2023/06/06 13:39:30;;;;;;;2.97;2.00;;;;;;;;;;5030055;28;20195;-68
2023/06/06 13:41:57;;;;;;;3.93;1.90;;;;;;;;;;5002575;28;20265;-67
2023/06/06 13:44:24;;;;;;;6.13;2.50;;;;;;;;;;5025856;28;20241;-66
2023/06/06 13:46:51;;;;;;;4.70;2.33;;;;;;;;;;5030243;28;20180;-67
2023/06/06 13:49:21;;;;;;;10.23;2.70;;;;;;;;;;5030296;28;20196;-67
2023/06/06 13:51:48;;;;;;;3.20;1.80;;;;;;;;;;5029990;28;20269;-67
2023/06/06 13:54:16;;;;;;;4.77;2.07;;;;;;;;;;5030063;28;20241;-67
2023/06/06 13:56:47;;;;;;;3.43;1.90;;;;;;;;;;5030420;28;20662;-67
2023/06/06 13:59:17;;;;;;;2.47;1.90;;;;;;;;;;5031986;28;20191;-67
2023/06/06 14:02:01;;;;;;;3.53;1.97;;;;;;;;;;5030645;28;20190;-67
2023/06/06 14:04:28;;;;;;;4.60;2.20;;;;;;;;;;5034983;28;20187;-68
2023/06/06 14:06:56;;;;;;;4.70;2.07;;;;;;;;;;5021267;28;20681;-67
2023/06/06 14:09:23;;;;;;;5.00;2.10;;;;;;;;;;5031284;28;20658;-67
2023/06/06 14:11:50;;;;;;;4.30;2.00;;;;;;;;;;5030744;28;20773;-67
2023/06/06 14:14:18;;;;;;;4.43;1.80;;;;;;;;;;5032477;28;20195;-67
2023/06/06 14:16:45;;;;;;;3.63;1.83;;;;;;;;;;5034235;28;20259;-67
2023/06/06 14:19:24;;;;;;;4.67;2.10;;;;;;;;;;5031841;28;20180;-67
2023/06/06 14:22:19;;;;;;;5.60;1.93;;;;;;;;;;5017906;28;20540;-67
2023/06/06 14:24:45;;;;;;;2.90;1.97;;;;;;;;;;5027417;28;20231;-67
2023/06/06 14:27:11;;;;;;;5.40;1.87;;;;;;;;;;5025770;28;20187;-67
2023/06/06 14:29:38;;;;;;;3.77;2.03;;;;;;;;;;5027965;28;20231;-67
2023/06/06 14:32:10;;;;;;;6.10;2.40;;;;;;;;;;5030006;28;20223;-67
2023/06/06 14:34:38;;;;;;;2.50;1.70;;;;;;;;;;5016734;28;20248;-68
2023/06/06 14:37:06;;;;;;;6.47;2.20;;;;;;;;;;5028489;28;20222;-68
2023/06/06 14:39:33;;;;;;;3.43;2.00;;;;;;;;;;5024699;28;20192;-68
2023/06/06 14:42:01;;;;;;;3.17;1.83;;;;;;;;;;5023175;28;20286;-67
2023/06/06 14:44:35;;;;;;;2.73;2.00;;;;;;;;;;5011543;28;20188;-67
2023/06/06 14:47:06;;;;;;;2.67;2.13;;;;;;;;;;5022187;28;20198;-66
2023/06/06 14:49:35;;;;;;;10.73;2.40;;;;;;;;;;5019963;28;20253;-68
2023/06/06 14:52:06;;;;;;;3.70;2.03;;;;;;;;;;5030153;28;20209;-66
2023/06/06 14:54:34;;;;;;;4.30;2.00;;;;;;;;;;5028749;28;20194;-67
2023/06/06 14:57:03;;;;;;;2.73;1.80;;;;;;;;;;5027504;28;20187;-67
2023/06/06 14:59:30;;;;;;;4.40;1.93;;;;;;;;;;5025409;28;20188;-67
2023/06/06 15:01:58;;;;;;;3.07;1.63;;;;;;;;;;5024942;28;20227;-67
2023/06/06 15:04:27;;;;;;;2.67;1.90;;;;;;;;;;5012891;28;20565;-67
2023/06/06 15:06:54;;;;;;;3.67;1.83;;;;;;;;;;5030367;28;20567;-67
2023/06/06 15:09:21;;;;;;;2.77;1.77;;;;;;;;;;5027752;28;20179;-67
2023/06/06 15:11:50;;;;;;;3.10;1.90;;;;;;;;;;5016718;28;20215;-67
2023/06/06 15:14:18;;;;;;;2.87;1.80;;;;;;;;;;5010409;28;20200;-67
2023/06/06 15:16:46;;;;;;;6.60;2.10;;;;;;;;;;5025565;28;20583;-68
2023/06/06 15:19:14;;;;;;;3.67;2.10;;;;;;;;;;5029662;28;20203;-68
2023/06/06 15:21:41;;;;;;;4.63;2.10;;;;;;;;;;5028005;28;20207;-67
2023/06/06 15:24:08;;;;;;;3.87;1.80;;;;;;;;;;5026550;28;20228;-70
2023/06/06 15:26:36;;;;;;;4.27;2.33;;;;;;;;;;5029665;28;20187;-68
2023/06/06 15:29:02;;;;;;;5.60;2.00;;;;;;;;;;5026767;28;20250;-69